WZZ9007 LKPR-LZKZ
Flight info
| Callsign | WZZ9007 |
|---|---|
| Flight time | 0h 51m |
| Altitude | 29000 |
| Route | VOZ DCT LIKSA DCT UPLAV DCT MAKAL DCT TAKOS |
| Aircraft | A20N/M-SDE2E3FGHIRWXY/LB1 |
Departure
| Time | 2026-05-06 17:49 |
|---|---|
| Airport | Václav Havel Airport Prague (LKPR) |
Arrival
| Time | 2026-05-06 18:41 |
|---|---|
| Airport | Košice International Airport (LZKZ) |
| Time | Latitude | Longitude | Altitude | Speed | Heading |
|---|---|---|---|---|---|
| 2026-05-06 17:29 | 50.10679 | 14.26008 | 1170 ft | 0 kts | 124° |
| 2026-05-06 17:42 | 50.10679 | 14.26009 | 1172 ft | 0 kts | 124° |
| 2026-05-06 17:42 | 50.10673 | 14.26022 | 1172 ft | 2 kts | 123° |
| 2026-05-06 17:43 | 50.10661 | 14.26051 | 1172 ft | 3 kts | 122° |
| 2026-05-06 17:43 | 50.10636 | 14.26072 | 1172 ft | 4 kts | 189° |
| 2026-05-06 17:43 | 50.10595 | 14.26037 | 1172 ft | 8 kts | 213° |
| 2026-05-06 17:43 | 50.10543 | 14.25985 | 1172 ft | 9 kts | 204° |
| 2026-05-06 17:44 | 50.10483 | 14.26014 | 1172 ft | 10 kts | 129° |
| 2026-05-06 17:44 | 50.10429 | 14.26129 | 1172 ft | 15 kts | 126° |
| 2026-05-06 17:44 | 50.10356 | 14.26280 | 1172 ft | 19 kts | 129° |
| 2026-05-06 17:44 | 50.10272 | 14.26453 | 1172 ft | 19 kts | 126° |
| 2026-05-06 17:45 | 50.10190 | 14.26623 | 1172 ft | 19 kts | 127° |
| 2026-05-06 17:45 | 50.10112 | 14.26782 | 1176 ft | 17 kts | 126° |
| 2026-05-06 17:45 | 50.10045 | 14.26920 | 1180 ft | 15 kts | 127° |
| 2026-05-06 17:45 | 50.09976 | 14.27063 | 1185 ft | 17 kts | 127° |
| 2026-05-06 17:46 | 50.09904 | 14.27214 | 1188 ft | 18 kts | 126° |
| 2026-05-06 17:46 | 50.09821 | 14.27369 | 1188 ft | 18 kts | 132° |
| 2026-05-06 17:46 | 50.09729 | 14.27504 | 1188 ft | 18 kts | 133° |
| 2026-05-06 17:46 | 50.09639 | 14.27645 | 1188 ft | 18 kts | 134° |
| 2026-05-06 17:47 | 50.09547 | 14.27785 | 1188 ft | 20 kts | 136° |
| 2026-05-06 17:47 | 50.09426 | 14.27968 | 1188 ft | 25 kts | 136° |
| 2026-05-06 17:47 | 50.09300 | 14.28162 | 1188 ft | 22 kts | 135° |
| 2026-05-06 17:47 | 50.09221 | 14.28277 | 1188 ft | 11 kts | 151° |
| 2026-05-06 17:48 | 50.09156 | 14.28271 | 1188 ft | 5 kts | 206° |
| 2026-05-06 17:48 | 50.09153 | 14.28268 | 1188 ft | 1 kts | 208° |
| 2026-05-06 17:48 | 50.09120 | 14.28232 | 1188 ft | 8 kts | 222° |
| 2026-05-06 17:48 | 50.09087 | 14.28128 | 1188 ft | 12 kts | 269° |
| 2026-05-06 17:49 | 50.09134 | 14.27986 | 1188 ft | 31 kts | 306° |
| 2026-05-06 17:49 | 50.09429 | 14.27375 | 1189 ft | 109 kts | 306° |
| 2026-05-06 17:49 | 50.10019 | 14.26159 | 1198 ft | 167 kts | 308° |
| 2026-05-06 17:49 | 50.10728 | 14.24729 | 1864 ft | 169 kts | 307° |
| 2026-05-06 17:50 | 50.11422 | 14.23283 | 2655 ft | 169 kts | 306° |
| 2026-05-06 17:50 | 50.12126 | 14.21808 | 3331 ft | 177 kts | 307° |
| 2026-05-06 17:50 | 50.12893 | 14.20202 | 3876 ft | 193 kts | 307° |
| 2026-05-06 17:50 | 50.13729 | 14.18461 | 4370 ft | 209 kts | 307° |
| 2026-05-06 17:51 | 50.14639 | 14.16577 | 4853 ft | 226 kts | 307° |
| 2026-05-06 17:51 | 50.15618 | 14.14552 | 5297 ft | 247 kts | 307° |
| 2026-05-06 17:51 | 50.16695 | 14.12329 | 5771 ft | 268 kts | 306° |
| 2026-05-06 17:51 | 50.17748 | 14.09842 | 6321 ft | 285 kts | 291° |
| 2026-05-06 17:52 | 50.18071 | 14.06784 | 7069 ft | 290 kts | 262° |
| 2026-05-06 17:52 | 50.17474 | 14.03865 | 7940 ft | 289 kts | 236° |
| 2026-05-06 17:52 | 50.16103 | 14.01605 | 8782 ft | 289 kts | 214° |
| 2026-05-06 17:52 | 50.14480 | 13.99822 | 9588 ft | 292 kts | 210° |
| 2026-05-06 17:53 | 50.12595 | 13.98654 | 10309 ft | 296 kts | 188° |
| 2026-05-06 17:53 | 50.10516 | 13.98770 | 10740 ft | 311 kts | 164° |
| 2026-05-06 17:53 | 50.08585 | 14.00406 | 11105 ft | 328 kts | 139° |
| 2026-05-06 17:53 | 50.06959 | 14.03029 | 11491 ft | 344 kts | 134° |
| 2026-05-06 17:54 | 50.05261 | 14.05786 | 11842 ft | 361 kts | 135° |
| 2026-05-06 17:54 | 50.03514 | 14.08592 | 12342 ft | 370 kts | 136° |
| 2026-05-06 17:54 | 50.01711 | 14.11467 | 13108 ft | 373 kts | 136° |
| 2026-05-06 17:54 | 49.99878 | 14.14381 | 13890 ft | 375 kts | 137° |
| 2026-05-06 17:55 | 49.98067 | 14.17251 | 14546 ft | 377 kts | 137° |
| 2026-05-06 17:55 | 49.96236 | 14.20145 | 15147 ft | 382 kts | 137° |
| 2026-05-06 17:55 | 49.94353 | 14.23123 | 15799 ft | 387 kts | 137° |
| 2026-05-06 17:55 | 49.92471 | 14.26097 | 16448 ft | 391 kts | 138° |
| 2026-05-06 17:56 | 49.90557 | 14.29117 | 17085 ft | 396 kts | 138° |
| 2026-05-06 17:56 | 49.88625 | 14.32166 | 17708 ft | 400 kts | 138° |
| 2026-05-06 17:56 | 49.86667 | 14.35252 | 18312 ft | 404 kts | 138° |
| 2026-05-06 17:56 | 49.84694 | 14.38364 | 18899 ft | 408 kts | 138° |
| 2026-05-06 17:57 | 49.82678 | 14.41538 | 19485 ft | 412 kts | 138° |
| 2026-05-06 17:57 | 49.80689 | 14.44667 | 20032 ft | 415 kts | 138° |
| 2026-05-06 17:57 | 49.78640 | 14.47886 | 20585 ft | 420 kts | 139° |
| 2026-05-06 17:57 | 49.76579 | 14.51118 | 21137 ft | 423 kts | 139° |
| 2026-05-06 17:58 | 49.74528 | 14.54328 | 21658 ft | 427 kts | 139° |
| 2026-05-06 17:58 | 49.72430 | 14.57609 | 22202 ft | 431 kts | 139° |
| 2026-05-06 17:58 | 49.70316 | 14.60911 | 22748 ft | 434 kts | 139° |
| 2026-05-06 17:58 | 49.68189 | 14.64228 | 23279 ft | 437 kts | 139° |
| 2026-05-06 17:59 | 49.66036 | 14.67582 | 23796 ft | 440 kts | 140° |
| 2026-05-06 17:59 | 49.63872 | 14.70948 | 24301 ft | 443 kts | 140° |
| 2026-05-06 17:59 | 49.61699 | 14.74325 | 24791 ft | 446 kts | 140° |
| 2026-05-06 17:59 | 49.59524 | 14.77702 | 25343 ft | 445 kts | 140° |
| 2026-05-06 18:00 | 49.57404 | 14.80988 | 26079 ft | 443 kts | 141° |
| 2026-05-06 18:00 | 49.55267 | 14.84412 | 26753 ft | 443 kts | 137° |
| 2026-05-06 18:00 | 49.53404 | 14.88001 | 27362 ft | 447 kts | 131° |
| 2026-05-06 18:00 | 49.51751 | 14.92147 | 27869 ft | 457 kts | 119° |
| 2026-05-06 18:01 | 49.50837 | 14.96878 | 28298 ft | 467 kts | 107° |
| 2026-05-06 18:01 | 49.50134 | 15.01797 | 28718 ft | 470 kts | 107° |
| 2026-05-06 18:01 | 49.49443 | 15.06688 | 28853 ft | 470 kts | 107° |
| 2026-05-06 18:01 | 49.48741 | 15.11584 | 28886 ft | 469 kts | 107° |
| 2026-05-06 18:02 | 49.47302 | 15.21347 | 28895 ft | 468 kts | 107° |
| 2026-05-06 18:02 | 49.45831 | 15.31103 | 28840 ft | 467 kts | 107° |
| 2026-05-06 18:03 | 49.44354 | 15.40772 | 28719 ft | 468 kts | 107° |
| 2026-05-06 18:03 | 49.42861 | 15.50469 | 28684 ft | 469 kts | 107° |
| 2026-05-06 18:04 | 49.41356 | 15.60196 | 28701 ft | 469 kts | 107° |
| 2026-05-06 18:04 | 49.39837 | 15.69946 | 28730 ft | 469 kts | 108° |
| 2026-05-06 18:05 | 49.38309 | 15.79682 | 28766 ft | 469 kts | 108° |
| 2026-05-06 18:05 | 49.36768 | 15.89439 | 28775 ft | 470 kts | 108° |
| 2026-05-06 18:06 | 49.35226 | 15.99154 | 28769 ft | 470 kts | 108° |
| 2026-05-06 18:06 | 49.33667 | 16.08895 | 28759 ft | 470 kts | 108° |
| 2026-05-06 18:07 | 49.32111 | 16.18568 | 28749 ft | 470 kts | 108° |
| 2026-05-06 18:07 | 49.30540 | 16.28291 | 28750 ft | 471 kts | 108° |
| 2026-05-06 18:08 | 49.28962 | 16.38009 | 28751 ft | 472 kts | 108° |
| 2026-05-06 18:08 | 49.27371 | 16.47751 | 28744 ft | 472 kts | 108° |
| 2026-05-06 18:09 | 49.25777 | 16.57455 | 28740 ft | 472 kts | 108° |
| 2026-05-06 18:09 | 49.24177 | 16.67148 | 28745 ft | 472 kts | 108° |
| 2026-05-06 18:10 | 49.22557 | 16.76900 | 28755 ft | 472 kts | 108° |
| 2026-05-06 18:10 | 49.20928 | 16.86645 | 28762 ft | 472 kts | 108° |
| 2026-05-06 18:11 | 49.19556 | 16.94813 | 28760 ft | 472 kts | 108° |
| 2026-05-06 18:11 | 49.17688 | 17.05870 | 28747 ft | 472 kts | 108° |
| 2026-05-06 18:12 | 49.16039 | 17.15571 | 28743 ft | 472 kts | 108° |
| 2026-05-06 18:12 | 49.14371 | 17.25336 | 28750 ft | 472 kts | 108° |
| 2026-05-06 18:13 | 49.12729 | 17.34889 | 28761 ft | 473 kts | 108° |
| 2026-05-06 18:13 | 49.11041 | 17.44661 | 28772 ft | 473 kts | 108° |
| 2026-05-06 18:14 | 49.09359 | 17.54339 | 28780 ft | 473 kts | 108° |
| 2026-05-06 18:14 | 49.07661 | 17.64057 | 28787 ft | 473 kts | 108° |
| 2026-05-06 18:15 | 49.05962 | 17.73736 | 28792 ft | 473 kts | 109° |
| 2026-05-06 18:15 | 49.04283 | 17.83239 | 28797 ft | 474 kts | 109° |
| 2026-05-06 18:16 | 49.02565 | 17.92914 | 28804 ft | 474 kts | 109° |
| 2026-05-06 18:16 | 49.00841 | 18.02568 | 28813 ft | 474 kts | 109° |
| 2026-05-06 18:17 | 48.99107 | 18.12236 | 28817 ft | 474 kts | 109° |
| 2026-05-06 18:17 | 48.97362 | 18.21905 | 28816 ft | 474 kts | 109° |
| 2026-05-06 18:18 | 48.95602 | 18.31596 | 28812 ft | 474 kts | 109° |
| 2026-05-06 18:18 | 48.93852 | 18.41192 | 28816 ft | 474 kts | 108° |
| 2026-05-06 18:19 | 48.92086 | 18.50827 | 28824 ft | 474 kts | 108° |
| 2026-05-06 18:19 | 48.90309 | 18.60473 | 28840 ft | 474 kts | 108° |
| 2026-05-06 18:20 | 48.88528 | 18.70087 | 28859 ft | 473 kts | 109° |
| 2026-05-06 18:20 | 48.87638 | 18.74878 | 28746 ft | 473 kts | 109° |
| 2026-05-06 18:20 | 48.86739 | 18.79700 | 28546 ft | 471 kts | 109° |
| 2026-05-06 18:21 | 48.85852 | 18.84446 | 28336 ft | 468 kts | 109° |
| 2026-05-06 18:21 | 48.84966 | 18.89176 | 28125 ft | 466 kts | 109° |
| 2026-05-06 18:21 | 48.84067 | 18.93961 | 27910 ft | 463 kts | 109° |
| 2026-05-06 18:21 | 48.83166 | 18.98758 | 27659 ft | 461 kts | 109° |
| 2026-05-06 18:22 | 48.82290 | 19.03402 | 27393 ft | 461 kts | 109° |
| 2026-05-06 18:22 | 48.81407 | 19.08069 | 27126 ft | 461 kts | 109° |
| 2026-05-06 18:22 | 48.80514 | 19.12773 | 26857 ft | 461 kts | 109° |
| 2026-05-06 18:22 | 48.79635 | 19.17394 | 26591 ft | 461 kts | 109° |
| 2026-05-06 18:23 | 48.78735 | 19.22115 | 26319 ft | 461 kts | 109° |
| 2026-05-06 18:23 | 48.77847 | 19.26759 | 26052 ft | 462 kts | 109° |
| 2026-05-06 18:23 | 48.76957 | 19.31404 | 25784 ft | 462 kts | 109° |
| 2026-05-06 18:23 | 48.76068 | 19.36031 | 25517 ft | 462 kts | 109° |
| 2026-05-06 18:24 | 48.75222 | 19.40729 | 25210 ft | 461 kts | 103° |
| 2026-05-06 18:24 | 48.75033 | 19.45611 | 24432 ft | 467 kts | 88° |
| 2026-05-06 18:24 | 48.75373 | 19.50468 | 23444 ft | 473 kts | 83° |
| 2026-05-06 18:24 | 48.75832 | 19.55371 | 22635 ft | 470 kts | 83° |
| 2026-05-06 18:25 | 48.76267 | 19.60233 | 21930 ft | 463 kts | 83° |
| 2026-05-06 18:25 | 48.76649 | 19.64991 | 21230 ft | 457 kts | 84° |
| 2026-05-06 18:25 | 48.77000 | 19.69835 | 20485 ft | 450 kts | 85° |
| 2026-05-06 18:25 | 48.77313 | 19.74502 | 19767 ft | 447 kts | 86° |
| 2026-05-06 18:26 | 48.77610 | 19.79156 | 19102 ft | 445 kts | 86° |
| 2026-05-06 18:26 | 48.77898 | 19.83836 | 18474 ft | 441 kts | 86° |
| 2026-05-06 18:26 | 48.78172 | 19.88360 | 17878 ft | 436 kts | 86° |
| 2026-05-06 18:26 | 48.78445 | 19.92939 | 17141 ft | 428 kts | 87° |
| 2026-05-06 18:27 | 48.78704 | 19.97353 | 16484 ft | 421 kts | 87° |
| 2026-05-06 18:27 | 48.78960 | 20.01706 | 15925 ft | 411 kts | 87° |
| 2026-05-06 18:27 | 48.79210 | 20.05998 | 15395 ft | 402 kts | 87° |
| 2026-05-06 18:27 | 48.79453 | 20.10190 | 14953 ft | 399 kts | 87° |
| 2026-05-06 18:28 | 48.79691 | 20.14322 | 14486 ft | 394 kts | 87° |
| 2026-05-06 18:28 | 48.79926 | 20.18442 | 14050 ft | 391 kts | 87° |
| 2026-05-06 18:28 | 48.80159 | 20.22534 | 13911 ft | 392 kts | 87° |
| 2026-05-06 18:28 | 48.80389 | 20.26666 | 13892 ft | 394 kts | 87° |
| 2026-05-06 18:29 | 48.80619 | 20.30819 | 13483 ft | 391 kts | 87° |
| 2026-05-06 18:29 | 48.80846 | 20.34881 | 12563 ft | 395 kts | 87° |
| 2026-05-06 18:29 | 48.81077 | 20.39040 | 11736 ft | 394 kts | 87° |
| 2026-05-06 18:29 | 48.81303 | 20.43137 | 11221 ft | 386 kts | 87° |
| 2026-05-06 18:30 | 48.81523 | 20.47127 | 10718 ft | 375 kts | 87° |
| 2026-05-06 18:30 | 48.81737 | 20.51026 | 10367 ft | 364 kts | 87° |
| 2026-05-06 18:30 | 48.81942 | 20.54764 | 10196 ft | 347 kts | 88° |
| 2026-05-06 18:30 | 48.82132 | 20.58309 | 10080 ft | 330 kts | 88° |
| 2026-05-06 18:31 | 48.82309 | 20.61713 | 9991 ft | 313 kts | 88° |
| 2026-05-06 18:31 | 48.82478 | 20.64941 | 9697 ft | 306 kts | 88° |
| 2026-05-06 18:31 | 48.82644 | 20.68118 | 9326 ft | 302 kts | 88° |
| 2026-05-06 18:31 | 48.82810 | 20.71277 | 8974 ft | 298 kts | 88° |
| 2026-05-06 18:32 | 48.82972 | 20.74418 | 8632 ft | 295 kts | 88° |
| 2026-05-06 18:32 | 48.83134 | 20.77543 | 8485 ft | 298 kts | 88° |
| 2026-05-06 18:32 | 48.83293 | 20.80671 | 8479 ft | 300 kts | 88° |
| 2026-05-06 18:32 | 48.83457 | 20.83814 | 8486 ft | 300 kts | 88° |
| 2026-05-06 18:33 | 48.83613 | 20.86957 | 8493 ft | 300 kts | 88° |
| 2026-05-06 18:33 | 48.83770 | 20.90081 | 8369 ft | 294 kts | 88° |
| 2026-05-06 18:33 | 48.83933 | 20.93189 | 7889 ft | 294 kts | 88° |
| 2026-05-06 18:33 | 48.84091 | 20.96279 | 7417 ft | 295 kts | 89° |
| 2026-05-06 18:34 | 48.84242 | 20.99342 | 7003 ft | 292 kts | 88° |
| 2026-05-06 18:34 | 48.84391 | 21.02406 | 6563 ft | 290 kts | 88° |
| 2026-05-06 18:34 | 48.84543 | 21.05473 | 6146 ft | 289 kts | 88° |
| 2026-05-06 18:34 | 48.84694 | 21.08505 | 5750 ft | 286 kts | 88° |
| 2026-05-06 18:35 | 48.84838 | 21.11469 | 5527 ft | 285 kts | 88° |
| 2026-05-06 18:35 | 48.84988 | 21.14483 | 5518 ft | 287 kts | 89° |
| 2026-05-06 18:35 | 48.85130 | 21.17460 | 5507 ft | 275 kts | 89° |
| 2026-05-06 18:35 | 48.85109 | 21.20256 | 5406 ft | 260 kts | 100° |
| 2026-05-06 18:36 | 48.84805 | 21.22912 | 5155 ft | 252 kts | 106° |
| 2026-05-06 18:36 | 48.84411 | 21.25498 | 4899 ft | 247 kts | 108° |
| 2026-05-06 18:36 | 48.83725 | 21.27768 | 4624 ft | 233 kts | 137° |
| 2026-05-06 18:36 | 48.82464 | 21.29062 | 4208 ft | 213 kts | 170° |
| 2026-05-06 18:37 | 48.81056 | 21.29204 | 3785 ft | 201 kts | 189° |
| 2026-05-06 18:37 | 48.80150 | 21.28993 | 3537 ft | 196 kts | 194° |
| 2026-05-06 18:37 | 48.78449 | 21.28386 | 3195 ft | 177 kts | 196° |
| 2026-05-06 18:37 | 48.77272 | 21.27949 | 2826 ft | 172 kts | 195° |
| 2026-05-06 18:38 | 48.76140 | 21.27547 | 2545 ft | 161 kts | 194° |
| 2026-05-06 18:38 | 48.75106 | 21.27181 | 2304 ft | 149 kts | 194° |
| 2026-05-06 18:38 | 48.74120 | 21.26842 | 2047 ft | 138 kts | 195° |
| 2026-05-06 18:38 | 48.73224 | 21.26532 | 1825 ft | 129 kts | 195° |
| 2026-05-06 18:39 | 48.72360 | 21.26218 | 1642 ft | 127 kts | 195° |
| 2026-05-06 18:39 | 48.71505 | 21.25914 | 1510 ft | 127 kts | 193° |
| 2026-05-06 18:39 | 48.70634 | 21.25630 | 1376 ft | 128 kts | 192° |
| 2026-05-06 18:40 | 48.68885 | 21.25022 | 1017 ft | 128 kts | 193° |
| 2026-05-06 18:40 | 48.68009 | 21.24710 | 847 ft | 128 kts | 192° |
| 2026-05-06 18:40 | 48.67157 | 21.24415 | 759 ft | 124 kts | 193° |
| 2026-05-06 18:40 | 48.66556 | 21.24205 | 755 ft | 67 kts | 192° |
| 2026-05-06 18:41 | 48.66132 | 21.24058 | 754 ft | 58 kts | 193° |
| 2026-05-06 18:41 | 48.65909 | 21.24058 | 752 ft | 27 kts | 114° |
| 2026-05-06 18:41 | 48.65903 | 21.24315 | 751 ft | 24 kts | 30° |
| 2026-05-06 18:41 | 48.66064 | 21.24379 | 752 ft | 23 kts | 13° |
| 2026-05-06 18:42 | 48.66233 | 21.24439 | 753 ft | 28 kts | 13° |
| 2026-05-06 18:42 | 48.66457 | 21.24517 | 754 ft | 36 kts | 13° |
| 2026-05-06 18:42 | 48.66724 | 21.24611 | 755 ft | 42 kts | 14° |
| 2026-05-06 18:42 | 48.67009 | 21.24711 | 757 ft | 26 kts | 13° |
| 2026-05-06 18:43 | 48.67171 | 21.24720 | 758 ft | 22 kts | 308° |
| 2026-05-06 18:43 | 48.67188 | 21.24664 | 758 ft | 0 kts | 283° |
| 2026-05-06 18:44 | 48.67191 | 21.24640 | 758 ft | 9 kts | 283° |
| 2026-05-06 18:44 | 48.67213 | 21.24493 | 758 ft | 18 kts | 282° |
| 2026-05-06 18:45 | 48.67245 | 21.24282 | 759 ft | 20 kts | 283° |
| 2026-05-06 18:45 | 48.67199 | 21.24159 | 760 ft | 13 kts | 192° |
| 2026-05-06 18:45 | 48.67177 | 21.24082 | 760 ft | 7 kts | 316° |
| 2026-05-06 18:45 | 48.67200 | 21.24077 | 760 ft | 3 kts | 15° |
| 2026-05-06 18:46 | 48.67223 | 21.24086 | 760 ft | 0 kts | 14° |